X  Fermer Données météorologiques d'aviation de Metar     EHRD Rotterdam The Hague Airport
Température
3°C Température
0°C Point de rosée
81% Humidité



Vent
5 KM/H
3 MPH
1 M/S
3 KTS



60°
ENE
Conditions actuelles

Ciel couvert Ciel couvert
Pression 1033.92 (hPa) - 30.53 (inHg)
Visibilité 6.2 (mile) - 10 (km)
Aéroport
Code de l'aéroport EHRD

Emplacement: Rotterdam The Hague Airport
Distance: 16 (km)

Metar:
EHRD 242155Z AUTO 06003KT 010V130 9999 OVC017 03/00 Q1034 NOSIG

Temps: 24-01-2022 22:55 CET